sensor_id;sensor_type;location;lat;lon;timestamp;P1;durP1;ratioP1;P2;durP2;ratioP2
26223;SDS011;14820;48.682;8.890;2023-01-29T00:00:11;14.65;;;8.30;;
26223;SDS011;14820;48.682;8.890;2023-01-29T00:02:39;13.60;;;8.05;;
26223;SDS011;14820;48.682;8.890;2023-01-29T00:05:07;15.00;;;8.50;;
26223;SDS011;14820;48.682;8.890;2023-01-29T00:07:35;13.18;;;8.20;;
26223;SDS011;14820;48.682;8.890;2023-01-29T00:10:03;12.77;;;8.20;;
26223;SDS011;14820;48.682;8.890;2023-01-29T00:12:31;11.00;;;7.75;;
26223;SDS011;14820;48.682;8.890;2023-01-29T00:14:59;10.52;;;7.43;;
26223;SDS011;14820;48.682;8.890;2023-01-29T00:17:27;11.52;;;8.18;;
26223;SDS011;14820;48.682;8.890;2023-01-29T00:19:56;10.45;;;8.27;;
26223;SDS011;14820;48.682;8.890;2023-01-29T00:22:24;14.40;;;8.23;;
26223;SDS011;14820;48.682;8.890;2023-01-29T00:24:52;12.27;;;7.50;;
26223;SDS011;14820;48.682;8.890;2023-01-29T00:27:20;14.07;;;8.63;;
26223;SDS011;14820;48.682;8.890;2023-01-29T00:30:04;13.32;;;7.95;;
26223;SDS011;14820;48.682;8.890;2023-01-29T00:32:37;12.07;;;7.53;;
26223;SDS011;14820;48.682;8.890;2023-01-29T00:35:06;10.52;;;7.80;;
26223;SDS011;14820;48.682;8.890;2023-01-29T00:37:34;13.98;;;7.85;;
26223;SDS011;14820;48.682;8.890;2023-01-29T00:40:03;15.15;;;8.70;;
26223;SDS011;14820;48.682;8.890;2023-01-29T00:42:31;15.15;;;8.40;;
26223;SDS011;14820;48.682;8.890;2023-01-29T00:45:18;12.32;;;8.20;;
26223;SDS011;14820;48.682;8.890;2023-01-29T00:48:03;12.73;;;8.60;;
26223;SDS011;14820;48.682;8.890;2023-01-29T00:50:45;14.27;;;8.13;;
26223;SDS011;14820;48.682;8.890;2023-01-29T00:53:27;13.43;;;8.27;;
26223;SDS011;14820;48.682;8.890;2023-01-29T00:56:09;13.18;;;8.00;;
26223;SDS011;14820;48.682;8.890;2023-01-29T00:58:51;12.05;;;8.40;;
26223;SDS011;14820;48.682;8.890;2023-01-29T01:01:32;14.05;;;8.60;;
26223;SDS011;14820;48.682;8.890;2023-01-29T01:04:31;14.10;;;8.25;;
26223;SDS011;14820;48.682;8.890;2023-01-29T01:07:12;12.70;;;7.78;;
26223;SDS011;14820;48.682;8.890;2023-01-29T01:09:54;13.18;;;7.65;;
26223;SDS011;14820;48.682;8.890;2023-01-29T01:12:49;10.20;;;6.57;;
26223;SDS011;14820;48.682;8.890;2023-01-29T01:15:37;9.95;;;6.80;;
26223;SDS011;14820;48.682;8.890;2023-01-29T01:18:17;11.80;;;7.38;;
26223;SDS011;14820;48.682;8.890;2023-01-29T01:20:59;12.60;;;7.50;;
26223;SDS011;14820;48.682;8.890;2023-01-29T01:23:40;11.23;;;6.95;;
26223;SDS011;14820;48.682;8.890;2023-01-29T01:28:59;11.27;;;7.18;;
26223;SDS011;14820;48.682;8.890;2023-01-29T01:31:39;13.93;;;7.13;;
26223;SDS011;14820;48.682;8.890;2023-01-29T01:34:19;12.43;;;7.82;;
26223;SDS011;14820;48.682;8.890;2023-01-29T01:36:47;13.27;;;8.05;;
26223;SDS011;14820;48.682;8.890;2023-01-29T01:39:13;16.40;;;7.88;;
26223;SDS011;14820;48.682;8.890;2023-01-29T01:41:38;11.27;;;7.85;;
26223;SDS011;14820;48.682;8.890;2023-01-29T01:44:05;10.68;;;7.45;;
26223;SDS011;14820;48.682;8.890;2023-01-29T01:46:32;11.75;;;6.95;;
26223;SDS011;14820;48.682;8.890;2023-01-29T01:51:38;12.93;;;7.32;;
26223;SDS011;14820;48.682;8.890;2023-01-29T01:54:21;11.50;;;7.68;;
26223;SDS011;14820;48.682;8.890;2023-01-29T01:56:52;10.98;;;6.95;;
26223;SDS011;14820;48.682;8.890;2023-01-29T01:59:29;12.20;;;7.00;;
26223;SDS011;14820;48.682;8.890;2023-01-29T02:01:57;10.23;;;7.22;;
26223;SDS011;14820;48.682;8.890;2023-01-29T02:04:23;11.52;;;7.07;;
26223;SDS011;14820;48.682;8.890;2023-01-29T02:07:09;10.77;;;7.05;;
26223;SDS011;14820;48.682;8.890;2023-01-29T02:12:25;10.65;;;7.00;;
26223;SDS011;14820;48.682;8.890;2023-01-29T02:14:55;11.25;;;7.40;;
26223;SDS011;14820;48.682;8.890;2023-01-29T02:17:21;8.82;;;6.60;;
26223;SDS011;14820;48.682;8.890;2023-01-29T02:28:10;12.02;;;7.20;;
26223;SDS011;14820;48.682;8.890;2023-01-29T02:30:52;11.57;;;7.70;;
26223;SDS011;14820;48.682;8.890;2023-01-29T02:39:14;9.25;;;5.95;;
26223;SDS011;14820;48.682;8.890;2023-01-29T02:46:56;13.13;;;7.40;;
26223;SDS011;14820;48.682;8.890;2023-01-29T02:49:32;12.65;;;7.63;;
26223;SDS011;14820;48.682;8.890;2023-01-29T02:52:16;11.90;;;7.53;;
26223;SDS011;14820;48.682;8.890;2023-01-29T02:54:52;10.38;;;7.40;;
26223;SDS011;14820;48.682;8.890;2023-01-29T02:57:28;10.20;;;6.75;;
26223;SDS011;14820;48.682;8.890;2023-01-29T02:59:58;11.45;;;6.97;;
26223;SDS011;14820;48.682;8.890;2023-01-29T03:02:50;9.18;;;6.50;;
26223;SDS011;14820;48.682;8.890;2023-01-29T03:05:31;10.35;;;7.00;;
26223;SDS011;14820;48.682;8.890;2023-01-29T03:08:08;8.93;;;6.10;;
26223;SDS011;14820;48.682;8.890;2023-01-29T03:10:42;10.00;;;7.05;;
26223;SDS011;14820;48.682;8.890;2023-01-29T03:13:25;10.88;;;7.55;;
26223;SDS011;14820;48.682;8.890;2023-01-29T03:16:10;12.23;;;6.97;;
26223;SDS011;14820;48.682;8.890;2023-01-29T03:18:50;11.25;;;7.15;;
26223;SDS011;14820;48.682;8.890;2023-01-29T03:21:21;11.05;;;7.28;;
26223;SDS011;14820;48.682;8.890;2023-01-29T03:24:17;10.85;;;7.18;;
26223;SDS011;14820;48.682;8.890;2023-01-29T03:27:07;10.00;;;6.50;;
26223;SDS011;14820;48.682;8.890;2023-01-29T03:29:54;11.38;;;6.95;;
26223;SDS011;14820;48.682;8.890;2023-01-29T03:32:40;9.13;;;6.75;;
26223;SDS011;14820;48.682;8.890;2023-01-29T03:35:08;10.80;;;7.32;;
26223;SDS011;14820;48.682;8.890;2023-01-29T03:37:38;9.82;;;7.32;;
26223;SDS011;14820;48.682;8.890;2023-01-29T03:40:10;9.05;;;6.30;;
26223;SDS011;14820;48.682;8.890;2023-01-29T03:45:25;11.38;;;7.15;;
26223;SDS011;14820;48.682;8.890;2023-01-29T03:58:44;10.35;;;6.68;;
26223;SDS011;14820;48.682;8.890;2023-01-29T04:03:42;10.55;;;6.93;;
26223;SDS011;14820;48.682;8.890;2023-01-29T04:08:47;9.65;;;6.40;;
26223;SDS011;14820;48.682;8.890;2023-01-29T04:11:17;12.52;;;7.32;;
26223;SDS011;14820;48.682;8.890;2023-01-29T04:13:45;10.07;;;6.55;;
26223;SDS011;14820;48.682;8.890;2023-01-29T04:16:17;9.07;;;6.60;;
26223;SDS011;14820;48.682;8.890;2023-01-29T04:18:45;10.73;;;6.97;;
26223;SDS011;14820;48.682;8.890;2023-01-29T04:21:13;10.15;;;6.53;;
26223;SDS011;14820;48.682;8.890;2023-01-29T04:23:41;10.18;;;6.28;;
26223;SDS011;14820;48.682;8.890;2023-01-29T04:31:14;9.07;;;6.15;;
26223;SDS011;14820;48.682;8.890;2023-01-29T04:36:16;10.15;;;7.05;;
26223;SDS011;14820;48.682;8.890;2023-01-29T04:38:56;11.60;;;7.10;;
26223;SDS011;14820;48.682;8.890;2023-01-29T04:46:33;9.50;;;6.32;;
26223;SDS011;14820;48.682;8.890;2023-01-29T04:59:44;11.25;;;7.13;;
26223;SDS011;14820;48.682;8.890;2023-01-29T05:02:15;10.32;;;6.93;;
26223;SDS011;14820;48.682;8.890;2023-01-29T05:04:44;10.50;;;7.18;;
26223;SDS011;14820;48.682;8.890;2023-01-29T05:07:14;10.90;;;6.90;;
26223;SDS011;14820;48.682;8.890;2023-01-29T05:09:45;11.18;;;7.25;;
26223;SDS011;14820;48.682;8.890;2023-01-29T05:12:15;9.52;;;6.85;;
26223;SDS011;14820;48.682;8.890;2023-01-29T05:14:45;9.55;;;6.82;;
26223;SDS011;14820;48.682;8.890;2023-01-29T05:17:16;11.68;;;7.53;;
26223;SDS011;14820;48.682;8.890;2023-01-29T05:19:46;10.63;;;6.80;;
26223;SDS011;14820;48.682;8.890;2023-01-29T05:22:16;11.82;;;7.20;;
26223;SDS011;14820;48.682;8.890;2023-01-29T05:24:47;9.93;;;6.82;;
26223;SDS011;14820;48.682;8.890;2023-01-29T05:27:18;10.63;;;7.53;;
26223;SDS011;14820;48.682;8.890;2023-01-29T05:30:07;11.10;;;7.38;;
26223;SDS011;14820;48.682;8.890;2023-01-29T05:32:36;9.80;;;7.20;;
26223;SDS011;14820;48.682;8.890;2023-01-29T05:35:05;11.35;;;7.05;;
26223;SDS011;14820;48.682;8.890;2023-01-29T05:37:35;13.65;;;7.32;;
26223;SDS011;14820;48.682;8.890;2023-01-29T05:40:04;10.38;;;7.18;;
26223;SDS011;14820;48.682;8.890;2023-01-29T05:42:33;11.98;;;7.20;;
26223;SDS011;14820;48.682;8.890;2023-01-29T05:45:03;11.38;;;7.43;;
26223;SDS011;14820;48.682;8.890;2023-01-29T05:47:32;8.30;;;5.75;;
26223;SDS011;14820;48.682;8.890;2023-01-29T05:50:01;8.85;;;6.20;;
26223;SDS011;14820;48.682;8.890;2023-01-29T05:52:30;10.77;;;7.05;;
26223;SDS011;14820;48.682;8.890;2023-01-29T05:55:00;11.80;;;8.25;;
26223;SDS011;14820;48.682;8.890;2023-01-29T05:57:29;12.55;;;8.48;;
26223;SDS011;14820;48.682;8.890;2023-01-29T05:59:58;10.82;;;7.85;;
26223;SDS011;14820;48.682;8.890;2023-01-29T06:02:28;11.30;;;7.18;;
26223;SDS011;14820;48.682;8.890;2023-01-29T06:04:58;9.65;;;6.88;;
26223;SDS011;14820;48.682;8.890;2023-01-29T06:07:27;10.60;;;6.85;;
26223;SDS011;14820;48.682;8.890;2023-01-29T06:09:56;8.30;;;6.25;;
26223;SDS011;14820;48.682;8.890;2023-01-29T06:12:26;9.07;;;6.55;;
26223;SDS011;14820;48.682;8.890;2023-01-29T06:14:55;9.98;;;6.05;;
26223;SDS011;14820;48.682;8.890;2023-01-29T06:17:24;11.70;;;6.70;;
26223;SDS011;14820;48.682;8.890;2023-01-29T06:19:53;8.93;;;6.25;;
26223;SDS011;14820;48.682;8.890;2023-01-29T06:22:22;9.82;;;6.53;;
26223;SDS011;14820;48.682;8.890;2023-01-29T06:24:52;11.35;;;7.00;;
26223;SDS011;14820;48.682;8.890;2023-01-29T06:27:21;9.65;;;6.05;;
26223;SDS011;14820;48.682;8.890;2023-01-29T06:29:50;9.60;;;6.35;;
26223;SDS011;14820;48.682;8.890;2023-01-29T06:32:19;9.75;;;6.65;;
26223;SDS011;14820;48.682;8.890;2023-01-29T06:34:48;9.60;;;6.85;;
26223;SDS011;14820;48.682;8.890;2023-01-29T06:37:17;10.15;;;7.25;;
26223;SDS011;14820;48.682;8.890;2023-01-29T06:39:47;13.02;;;7.40;;
26223;SDS011;14820;48.682;8.890;2023-01-29T06:42:16;10.55;;;6.90;;
26223;SDS011;14820;48.682;8.890;2023-01-29T06:44:51;10.85;;;7.68;;
26223;SDS011;14820;48.682;8.890;2023-01-29T06:47:21;10.75;;;7.15;;
26223;SDS011;14820;48.682;8.890;2023-01-29T06:49:50;10.45;;;7.40;;
26223;SDS011;14820;48.682;8.890;2023-01-29T06:52:21;14.32;;;7.25;;
26223;SDS011;14820;48.682;8.890;2023-01-29T06:54:59;9.45;;;6.72;;
26223;SDS011;14820;48.682;8.890;2023-01-29T06:57:27;13.43;;;7.22;;
26223;SDS011;14820;48.682;8.890;2023-01-29T06:59:54;11.13;;;7.18;;
26223;SDS011;14820;48.682;8.890;2023-01-29T07:02:20;10.25;;;6.97;;
26223;SDS011;14820;48.682;8.890;2023-01-29T07:04:46;10.65;;;6.88;;
26223;SDS011;14820;48.682;8.890;2023-01-29T07:07:12;10.75;;;7.50;;
26223;SDS011;14820;48.682;8.890;2023-01-29T07:09:41;10.57;;;7.30;;
26223;SDS011;14820;48.682;8.890;2023-01-29T07:12:08;9.05;;;6.72;;
26223;SDS011;14820;48.682;8.890;2023-01-29T07:14:34;11.25;;;7.72;;
26223;SDS011;14820;48.682;8.890;2023-01-29T07:17:00;10.98;;;7.60;;
26223;SDS011;14820;48.682;8.890;2023-01-29T07:19:26;11.32;;;7.90;;
26223;SDS011;14820;48.682;8.890;2023-01-29T07:21:52;11.07;;;7.85;;
26223;SDS011;14820;48.682;8.890;2023-01-29T07:24:18;14.43;;;7.97;;
26223;SDS011;14820;48.682;8.890;2023-01-29T07:26:44;12.57;;;8.32;;
26223;SDS011;14820;48.682;8.890;2023-01-29T07:29:10;13.25;;;8.00;;
26223;SDS011;14820;48.682;8.890;2023-01-29T07:31:36;12.10;;;7.88;;
26223;SDS011;14820;48.682;8.890;2023-01-29T07:34:02;13.10;;;7.85;;
26223;SDS011;14820;48.682;8.890;2023-01-29T07:36:28;13.10;;;8.88;;
26223;SDS011;14820;48.682;8.890;2023-01-29T07:38:54;11.85;;;7.97;;
26223;SDS011;14820;48.682;8.890;2023-01-29T07:41:20;13.70;;;8.00;;
26223;SDS011;14820;48.682;8.890;2023-01-29T07:43:46;14.15;;;8.35;;
26223;SDS011;14820;48.682;8.890;2023-01-29T07:46:13;10.75;;;7.55;;
26223;SDS011;14820;48.682;8.890;2023-01-29T07:48:39;12.13;;;8.50;;
26223;SDS011;14820;48.682;8.890;2023-01-29T07:51:07;10.60;;;7.75;;
26223;SDS011;14820;48.682;8.890;2023-01-29T07:53:48;11.55;;;7.97;;
26223;SDS011;14820;48.682;8.890;2023-01-29T07:56:17;14.80;;;8.98;;
26223;SDS011;14820;48.682;8.890;2023-01-29T07:58:49;12.52;;;8.57;;
26223;SDS011;14820;48.682;8.890;2023-01-29T08:01:17;13.80;;;9.13;;
26223;SDS011;14820;48.682;8.890;2023-01-29T08:03:45;10.63;;;7.68;;
26223;SDS011;14820;48.682;8.890;2023-01-29T08:06:13;10.57;;;7.30;;
26223;SDS011;14820;48.682;8.890;2023-01-29T08:08:41;11.95;;;8.57;;
26223;SDS011;14820;48.682;8.890;2023-01-29T08:11:09;12.43;;;8.70;;
26223;SDS011;14820;48.682;8.890;2023-01-29T08:13:37;12.35;;;8.35;;
26223;SDS011;14820;48.682;8.890;2023-01-29T08:16:05;12.57;;;8.77;;
26223;SDS011;14820;48.682;8.890;2023-01-29T08:18:35;14.30;;;9.43;;
26223;SDS011;14820;48.682;8.890;2023-01-29T08:21:06;11.68;;;8.43;;
26223;SDS011;14820;48.682;8.890;2023-01-29T08:23:34;13.10;;;8.82;;
26223;SDS011;14820;48.682;8.890;2023-01-29T08:26:02;13.07;;;9.77;;
26223;SDS011;14820;48.682;8.890;2023-01-29T08:28:30;13.10;;;10.05;;
26223;SDS011;14820;48.682;8.890;2023-01-29T08:31:13;12.20;;;8.60;;
26223;SDS011;14820;48.682;8.890;2023-01-29T08:33:41;13.80;;;9.65;;
26223;SDS011;14820;48.682;8.890;2023-01-29T08:36:23;14.98;;;9.38;;
26223;SDS011;14820;48.682;8.890;2023-01-29T08:38:51;12.45;;;8.32;;
26223;SDS011;14820;48.682;8.890;2023-01-29T08:41:19;12.13;;;8.38;;
26223;SDS011;14820;48.682;8.890;2023-01-29T08:43:47;15.35;;;9.02;;
26223;SDS011;14820;48.682;8.890;2023-01-29T08:46:28;13.60;;;9.35;;
26223;SDS011;14820;48.682;8.890;2023-01-29T08:49:05;12.23;;;8.32;;
26223;SDS011;14820;48.682;8.890;2023-01-29T08:51:43;13.07;;;8.55;;
26223;SDS011;14820;48.682;8.890;2023-01-29T08:54:17;12.88;;;9.15;;
26223;SDS011;14820;48.682;8.890;2023-01-29T08:56:51;11.98;;;8.60;;
26223;SDS011;14820;48.682;8.890;2023-01-29T08:59:26;13.00;;;8.93;;
26223;SDS011;14820;48.682;8.890;2023-01-29T09:01:58;14.13;;;9.50;;
26223;SDS011;14820;48.682;8.890;2023-01-29T09:04:31;12.95;;;8.85;;
26223;SDS011;14820;48.682;8.890;2023-01-29T09:07:03;21.45;;;11.98;;
26223;SDS011;14820;48.682;8.890;2023-01-29T09:09:38;16.13;;;10.70;;
26223;SDS011;14820;48.682;8.890;2023-01-29T09:12:15;13.77;;;9.80;;
26223;SDS011;14820;48.682;8.890;2023-01-29T09:14:53;12.95;;;8.85;;
26223;SDS011;14820;48.682;8.890;2023-01-29T09:17:28;13.70;;;9.52;;
26223;SDS011;14820;48.682;8.890;2023-01-29T09:20:07;15.65;;;9.65;;
26223;SDS011;14820;48.682;8.890;2023-01-29T09:22:44;13.48;;;8.52;;
26223;SDS011;14820;48.682;8.890;2023-01-29T09:25:20;16.23;;;10.43;;
26223;SDS011;14820;48.682;8.890;2023-01-29T09:27:52;13.93;;;9.32;;
26223;SDS011;14820;48.682;8.890;2023-01-29T09:30:24;14.80;;;9.98;;
26223;SDS011;14820;48.682;8.890;2023-01-29T09:32:58;14.40;;;9.90;;
26223;SDS011;14820;48.682;8.890;2023-01-29T09:35:30;16.52;;;9.98;;
26223;SDS011;14820;48.682;8.890;2023-01-29T09:38:01;13.55;;;10.05;;
26223;SDS011;14820;48.682;8.890;2023-01-29T09:43:16;18.92;;;10.85;;
26223;SDS011;14820;48.682;8.890;2023-01-29T09:45:52;14.45;;;10.32;;
26223;SDS011;14820;48.682;8.890;2023-01-29T09:48:26;13.48;;;9.85;;
26223;SDS011;14820;48.682;8.890;2023-01-29T09:50:57;15.73;;;10.70;;
26223;SDS011;14820;48.682;8.890;2023-01-29T09:56:16;16.15;;;10.00;;
26223;SDS011;14820;48.682;8.890;2023-01-29T09:58:52;15.32;;;10.38;;
26223;SDS011;14820;48.682;8.890;2023-01-29T10:06:29;14.52;;;9.55;;
26223;SDS011;14820;48.682;8.890;2023-01-29T10:14:35;15.32;;;10.00;;
26223;SDS011;14820;48.682;8.890;2023-01-29T10:22:48;13.32;;;9.55;;
26223;SDS011;14820;48.682;8.890;2023-01-29T10:25:21;15.25;;;10.52;;
26223;SDS011;14820;48.682;8.890;2023-01-29T10:27:51;17.17;;;10.93;;
26223;SDS011;14820;48.682;8.890;2023-01-29T10:30:37;21.60;;;13.52;;
26223;SDS011;14820;48.682;8.890;2023-01-29T10:33:11;16.17;;;10.75;;
26223;SDS011;14820;48.682;8.890;2023-01-29T10:35:42;18.50;;;11.23;;
26223;SDS011;14820;48.682;8.890;2023-01-29T10:38:26;18.98;;;12.20;;
26223;SDS011;14820;48.682;8.890;2023-01-29T10:43:31;14.05;;;9.63;;
26223;SDS011;14820;48.682;8.890;2023-01-29T10:48:54;16.60;;;11.20;;
26223;SDS011;14820;48.682;8.890;2023-01-29T10:57:08;16.48;;;11.15;;
26223;SDS011;14820;48.682;8.890;2023-01-29T10:59:47;16.02;;;11.18;;
26223;SDS011;14820;48.682;8.890;2023-01-29T11:02:19;15.98;;;11.10;;
26223;SDS011;14820;48.682;8.890;2023-01-29T11:04:46;14.60;;;10.70;;
26223;SDS011;14820;48.682;8.890;2023-01-29T11:07:15;17.02;;;10.95;;
26223;SDS011;14820;48.682;8.890;2023-01-29T11:09:44;16.52;;;10.77;;
26223;SDS011;14820;48.682;8.890;2023-01-29T11:12:27;16.83;;;10.40;;
26223;SDS011;14820;48.682;8.890;2023-01-29T11:15:00;16.50;;;9.88;;
26223;SDS011;14820;48.682;8.890;2023-01-29T11:17:29;14.95;;;10.27;;
26223;SDS011;14820;48.682;8.890;2023-01-29T11:19:56;17.27;;;11.02;;
26223;SDS011;14820;48.682;8.890;2023-01-29T11:22:24;16.25;;;11.00;;
26223;SDS011;14820;48.682;8.890;2023-01-29T11:27:44;15.45;;;10.18;;
26223;SDS011;14820;48.682;8.890;2023-01-29T11:32:39;15.65;;;9.68;;
26223;SDS011;14820;48.682;8.890;2023-01-29T11:37:41;17.40;;;11.52;;
26223;SDS011;14820;48.682;8.890;2023-01-29T11:42:47;16.40;;;11.35;;
26223;SDS011;14820;48.682;8.890;2023-01-29T11:45:27;16.27;;;11.07;;
26223;SDS011;14820;48.682;8.890;2023-01-29T11:47:57;14.48;;;9.77;;
26223;SDS011;14820;48.682;8.890;2023-01-29T11:50:26;15.35;;;10.35;;
26223;SDS011;14820;48.682;8.890;2023-01-29T11:52:53;15.43;;;10.50;;
26223;SDS011;14820;48.682;8.890;2023-01-29T11:55:21;16.08;;;11.18;;
26223;SDS011;14820;48.682;8.890;2023-01-29T11:57:50;16.02;;;10.98;;
26223;SDS011;14820;48.682;8.890;2023-01-29T12:00:23;15.63;;;11.23;;
26223;SDS011;14820;48.682;8.890;2023-01-29T12:03:00;18.38;;;10.95;;
26223;SDS011;14820;48.682;8.890;2023-01-29T12:05:30;15.65;;;10.25;;
26223;SDS011;14820;48.682;8.890;2023-01-29T12:07:57;17.33;;;11.45;;
26223;SDS011;14820;48.682;8.890;2023-01-29T12:10:35;15.43;;;10.43;;
26223;SDS011;14820;48.682;8.890;2023-01-29T12:15:39;16.85;;;10.85;;
26223;SDS011;14820;48.682;8.890;2023-01-29T12:18:11;18.67;;;12.30;;
26223;SDS011;14820;48.682;8.890;2023-01-29T12:20:46;15.30;;;10.20;;
26223;SDS011;14820;48.682;8.890;2023-01-29T12:25:59;15.10;;;9.90;;
26223;SDS011;14820;48.682;8.890;2023-01-29T12:37:05;18.08;;;10.55;;
26223;SDS011;14820;48.682;8.890;2023-01-29T12:39:33;15.95;;;10.15;;
26223;SDS011;14820;48.682;8.890;2023-01-29T12:42:04;15.38;;;10.38;;
26223;SDS011;14820;48.682;8.890;2023-01-29T12:44:40;15.70;;;10.40;;
26223;SDS011;14820;48.682;8.890;2023-01-29T12:47:30;15.88;;;10.23;;
26223;SDS011;14820;48.682;8.890;2023-01-29T12:50:39;14.43;;;10.25;;
26223;SDS011;14820;48.682;8.890;2023-01-29T12:55:45;15.68;;;10.40;;
26223;SDS011;14820;48.682;8.890;2023-01-29T12:58:20;13.23;;;9.05;;
26223;SDS011;14820;48.682;8.890;2023-01-29T13:00:53;15.45;;;10.35;;
26223;SDS011;14820;48.682;8.890;2023-01-29T13:03:26;13.82;;;9.50;;
26223;SDS011;14820;48.682;8.890;2023-01-29T13:06:16;13.48;;;9.50;;
26223;SDS011;14820;48.682;8.890;2023-01-29T13:08:50;17.05;;;9.65;;
26223;SDS011;14820;48.682;8.890;2023-01-29T13:11:20;13.10;;;9.40;;
26223;SDS011;14820;48.682;8.890;2023-01-29T13:13:57;12.23;;;8.95;;
26223;SDS011;14820;48.682;8.890;2023-01-29T13:16:26;18.13;;;10.38;;
26223;SDS011;14820;48.682;8.890;2023-01-29T13:19:01;13.38;;;8.93;;
26223;SDS011;14820;48.682;8.890;2023-01-29T13:21:34;17.25;;;9.93;;
26223;SDS011;14820;48.682;8.890;2023-01-29T13:24:03;14.75;;;9.18;;
26223;SDS011;14820;48.682;8.890;2023-01-29T13:26:33;13.85;;;9.80;;
26223;SDS011;14820;48.682;8.890;2023-01-29T13:28:59;15.10;;;10.05;;
26223;SDS011;14820;48.682;8.890;2023-01-29T13:31:33;17.25;;;10.98;;
26223;SDS011;14820;48.682;8.890;2023-01-29T13:36:27;16.42;;;10.68;;
26223;SDS011;14820;48.682;8.890;2023-01-29T13:39:14;13.85;;;9.95;;
26223;SDS011;14820;48.682;8.890;2023-01-29T13:41:42;17.00;;;10.32;;
26223;SDS011;14820;48.682;8.890;2023-01-29T13:49:26;17.50;;;10.50;;
26223;SDS011;14820;48.682;8.890;2023-01-29T13:51:53;15.38;;;10.73;;
26223;SDS011;14820;48.682;8.890;2023-01-29T13:54:21;16.13;;;10.40;;
26223;SDS011;14820;48.682;8.890;2023-01-29T13:59:23;18.67;;;10.27;;
26223;SDS011;14820;48.682;8.890;2023-01-29T14:02:22;16.08;;;9.98;;
26223;SDS011;14820;48.682;8.890;2023-01-29T14:07:54;17.58;;;10.27;;
26223;SDS011;14820;48.682;8.890;2023-01-29T14:10:30;15.65;;;10.07;;
26223;SDS011;14820;48.682;8.890;2023-01-29T14:15:36;18.52;;;11.25;;
26223;SDS011;14820;48.682;8.890;2023-01-29T14:18:12;15.82;;;10.55;;
26223;SDS011;14820;48.682;8.890;2023-01-29T14:20:58;16.25;;;9.80;;
26223;SDS011;14820;48.682;8.890;2023-01-29T14:23:47;15.15;;;9.80;;
26223;SDS011;14820;48.682;8.890;2023-01-29T14:26:20;16.55;;;10.52;;
26223;SDS011;14820;48.682;8.890;2023-01-29T14:28:55;15.15;;;10.20;;
26223;SDS011;14820;48.682;8.890;2023-01-29T14:34:00;18.90;;;12.18;;
26223;SDS011;14820;48.682;8.890;2023-01-29T14:36:27;15.90;;;11.38;;
26223;SDS011;14820;48.682;8.890;2023-01-29T14:39:02;16.88;;;11.65;;
26223;SDS011;14820;48.682;8.890;2023-01-29T14:41:29;21.88;;;12.88;;
26223;SDS011;14820;48.682;8.890;2023-01-29T14:46:59;17.55;;;11.50;;
26223;SDS011;14820;48.682;8.890;2023-01-29T14:52:13;18.63;;;11.82;;
26223;SDS011;14820;48.682;8.890;2023-01-29T14:54:40;19.50;;;12.40;;
26223;SDS011;14820;48.682;8.890;2023-01-29T14:57:08;21.38;;;12.85;;
26223;SDS011;14820;48.682;8.890;2023-01-29T14:59:37;18.90;;;12.18;;
26223;SDS011;14820;48.682;8.890;2023-01-29T15:02:31;19.70;;;13.07;;
26223;SDS011;14820;48.682;8.890;2023-01-29T15:05:11;17.35;;;11.52;;
26223;SDS011;14820;48.682;8.890;2023-01-29T15:07:47;17.92;;;12.13;;
26223;SDS011;14820;48.682;8.890;2023-01-29T15:13:07;17.35;;;9.77;;
26223;SDS011;14820;48.682;8.890;2023-01-29T15:15:36;19.25;;;10.48;;
26223;SDS011;14820;48.682;8.890;2023-01-29T15:18:22;17.70;;;11.57;;
26223;SDS011;14820;48.682;8.890;2023-01-29T15:21:02;19.45;;;12.00;;
26223;SDS011;14820;48.682;8.890;2023-01-29T15:23:35;16.23;;;11.10;;
26223;SDS011;14820;48.682;8.890;2023-01-29T15:26:05;20.45;;;12.10;;
26223;SDS011;14820;48.682;8.890;2023-01-29T15:28:36;18.50;;;11.10;;
26223;SDS011;14820;48.682;8.890;2023-01-29T15:31:07;16.08;;;10.73;;
26223;SDS011;14820;48.682;8.890;2023-01-29T15:33:37;18.50;;;12.37;;
26223;SDS011;14820;48.682;8.890;2023-01-29T15:36:07;21.83;;;13.15;;
26223;SDS011;14820;48.682;8.890;2023-01-29T15:38:43;26.38;;;17.48;;
26223;SDS011;14820;48.682;8.890;2023-01-29T15:41:17;21.40;;;12.98;;
26223;SDS011;14820;48.682;8.890;2023-01-29T15:43:56;25.95;;;14.57;;
26223;SDS011;14820;48.682;8.890;2023-01-29T15:49:07;17.80;;;11.65;;
26223;SDS011;14820;48.682;8.890;2023-01-29T15:51:39;19.00;;;11.98;;
26223;SDS011;14820;48.682;8.890;2023-01-29T15:54:06;16.27;;;10.85;;
26223;SDS011;14820;48.682;8.890;2023-01-29T15:56:39;20.23;;;11.98;;
26223;SDS011;14820;48.682;8.890;2023-01-29T15:59:12;17.02;;;11.05;;
26223;SDS011;14820;48.682;8.890;2023-01-29T16:01:54;18.83;;;12.27;;
26223;SDS011;14820;48.682;8.890;2023-01-29T16:04:23;17.42;;;11.20;;
26223;SDS011;14820;48.682;8.890;2023-01-29T16:06:54;21.27;;;13.57;;
26223;SDS011;14820;48.682;8.890;2023-01-29T16:09:22;19.45;;;11.98;;
26223;SDS011;14820;48.682;8.890;2023-01-29T16:11:49;18.92;;;11.52;;
26223;SDS011;14820;48.682;8.890;2023-01-29T16:14:18;17.98;;;11.50;;
26223;SDS011;14820;48.682;8.890;2023-01-29T16:16:47;16.95;;;11.30;;
26223;SDS011;14820;48.682;8.890;2023-01-29T16:19:18;20.73;;;12.82;;
26223;SDS011;14820;48.682;8.890;2023-01-29T16:21:53;28.45;;;16.63;;
26223;SDS011;14820;48.682;8.890;2023-01-29T16:24:24;25.67;;;16.23;;
26223;SDS011;14820;48.682;8.890;2023-01-29T16:26:52;31.13;;;17.38;;
26223;SDS011;14820;48.682;8.890;2023-01-29T16:29:30;34.28;;;18.35;;
26223;SDS011;14820;48.682;8.890;2023-01-29T16:31:58;37.78;;;20.90;;
26223;SDS011;14820;48.682;8.890;2023-01-29T16:34:34;35.72;;;21.13;;
26223;SDS011;14820;48.682;8.890;2023-01-29T16:37:03;32.85;;;17.65;;
26223;SDS011;14820;48.682;8.890;2023-01-29T16:39:32;29.95;;;17.00;;
26223;SDS011;14820;48.682;8.890;2023-01-29T16:44:31;44.85;;;24.25;;
26223;SDS011;14820;48.682;8.890;2023-01-29T16:47:13;52.30;;;27.23;;
26223;SDS011;14820;48.682;8.890;2023-01-29T16:49:44;37.25;;;22.00;;
26223;SDS011;14820;48.682;8.890;2023-01-29T16:54:47;24.98;;;15.10;;
26223;SDS011;14820;48.682;8.890;2023-01-29T16:57:15;28.10;;;16.38;;
26223;SDS011;14820;48.682;8.890;2023-01-29T16:59:43;31.35;;;16.92;;
26223;SDS011;14820;48.682;8.890;2023-01-29T17:02:25;26.30;;;16.13;;
26223;SDS011;14820;48.682;8.890;2023-01-29T17:04:57;20.90;;;13.73;;
26223;SDS011;14820;48.682;8.890;2023-01-29T17:07:26;27.58;;;17.52;;
26223;SDS011;14820;48.682;8.890;2023-01-29T17:09:56;19.73;;;13.27;;
26223;SDS011;14820;48.682;8.890;2023-01-29T17:12:24;21.27;;;13.40;;
26223;SDS011;14820;48.682;8.890;2023-01-29T17:14:53;21.10;;;13.10;;
26223;SDS011;14820;48.682;8.890;2023-01-29T17:17:21;27.02;;;15.85;;
26223;SDS011;14820;48.682;8.890;2023-01-29T17:19:54;24.95;;;16.02;;
26223;SDS011;14820;48.682;8.890;2023-01-29T17:22:21;21.23;;;13.43;;
26223;SDS011;14820;48.682;8.890;2023-01-29T17:24:48;20.70;;;12.57;;
26223;SDS011;14820;48.682;8.890;2023-01-29T17:27:18;21.98;;;14.98;;
26223;SDS011;14820;48.682;8.890;2023-01-29T17:29:45;37.50;;;21.90;;
26223;SDS011;14820;48.682;8.890;2023-01-29T17:32:15;27.25;;;17.00;;
26223;SDS011;14820;48.682;8.890;2023-01-29T17:34:44;30.02;;;17.98;;
26223;SDS011;14820;48.682;8.890;2023-01-29T17:37:13;38.38;;;19.98;;
26223;SDS011;14820;48.682;8.890;2023-01-29T17:39:40;58.70;;;27.20;;
26223;SDS011;14820;48.682;8.890;2023-01-29T17:42:07;79.07;;;46.35;;
26223;SDS011;14820;48.682;8.890;2023-01-29T17:44:35;28.63;;;17.58;;